createdAt,value
2023-03-29T00:00:14.163Z,43.40
2023-03-29T00:02:48.611Z,42.70
2023-03-29T00:05:18.552Z,41.90
2023-03-29T00:07:46.966Z,41.80
2023-03-29T00:10:15.806Z,41.10
2023-03-29T00:12:43.959Z,40.90
2023-03-29T00:15:12.785Z,40.60
2023-03-29T00:17:41.052Z,39.80
2023-03-29T00:20:12.329Z,39.00
2023-03-29T00:22:42.071Z,38.70
2023-03-29T00:25:11.128Z,37.70
2023-03-29T00:27:41.895Z,37.40
2023-03-29T00:30:11.106Z,36.80
2023-03-29T00:32:41.725Z,36.50
2023-03-29T00:35:11.498Z,36.00
2023-03-29T00:37:39.709Z,36.00
2023-03-29T00:40:11.059Z,35.80
2023-03-29T00:42:39.416Z,35.40
2023-03-29T00:45:17.484Z,35.90
2023-03-29T00:47:48.806Z,36.00
2023-03-29T00:50:25.900Z,36.00
2023-03-29T00:53:00.879Z,35.50
2023-03-29T00:55:32.972Z,36.10
2023-03-29T00:58:04.437Z,35.70
2023-03-29T01:00:36.569Z,36.00
2023-03-29T01:03:13.884Z,36.20
2023-03-29T01:05:46.785Z,36.00
2023-03-29T01:08:20.038Z,36.40
2023-03-29T01:10:52.456Z,36.40
2023-03-29T01:13:28.682Z,36.40
2023-03-29T01:15:59.220Z,35.90
2023-03-29T01:18:27.484Z,36.40
2023-03-29T01:21:16.854Z,36.50
2023-03-29T01:24:07.653Z,36.10
2023-03-29T01:26:48.537Z,35.70
2023-03-29T01:29:25.602Z,36.20
2023-03-29T01:31:59.235Z,36.70
2023-03-29T01:34:35.378Z,36.50
2023-03-29T01:37:08.592Z,36.80
2023-03-29T01:39:36.960Z,36.90
2023-03-29T01:42:16.167Z,36.60
2023-03-29T01:44:53.813Z,36.50
2023-03-29T01:47:28.616Z,37.10
2023-03-29T01:50:06.448Z,37.40
2023-03-29T01:52:39.579Z,35.70
2023-03-29T01:55:14.381Z,35.80
2023-03-29T01:57:45.626Z,37.00
2023-03-29T02:00:19.063Z,37.00
2023-03-29T02:02:48.649Z,36.90
2023-03-29T02:05:19.673Z,36.70
2023-03-29T02:07:50.455Z,36.60
2023-03-29T02:10:19.972Z,36.30
2023-03-29T02:12:48.317Z,36.40
2023-03-29T02:15:20.792Z,36.50
2023-03-29T02:17:50.854Z,36.70
2023-03-29T02:20:22.590Z,36.80
2023-03-29T02:22:59.615Z,36.60
2023-03-29T02:25:27.996Z,37.00
2023-03-29T02:27:57.240Z,36.60
2023-03-29T02:30:31.307Z,35.70
2023-03-29T02:33:06.772Z,36.50
2023-03-29T02:35:42.252Z,36.70
2023-03-29T02:38:11.782Z,36.80
2023-03-29T02:40:43.185Z,36.90
2023-03-29T02:43:14.189Z,37.10
2023-03-29T02:45:45.344Z,36.90
2023-03-29T02:48:19.139Z,36.60
2023-03-29T02:50:50.339Z,36.70
2023-03-29T02:53:22.729Z,36.70
2023-03-29T02:55:52.865Z,36.60
2023-03-29T02:58:28.768Z,36.60
2023-03-29T03:01:01.291Z,36.60
2023-03-29T03:03:30.174Z,36.60
2023-03-29T03:06:02.032Z,36.40
2023-03-29T03:08:32.166Z,37.00
2023-03-29T03:11:02.351Z,37.50
2023-03-29T03:13:30.803Z,37.70
2023-03-29T03:16:01.188Z,38.40
2023-03-29T03:18:29.462Z,39.40
2023-03-29T03:20:59.165Z,39.40
2023-03-29T03:23:27.564Z,39.20
2023-03-29T03:25:56.386Z,38.80
2023-03-29T03:28:27.242Z,38.70
2023-03-29T03:30:56.104Z,37.90
2023-03-29T03:33:26.953Z,38.60
2023-03-29T03:36:15.656Z,38.30
2023-03-29T03:38:47.684Z,37.90
2023-03-29T03:41:19.788Z,38.30
2023-03-29T03:43:49.458Z,38.30
2023-03-29T03:46:19.140Z,38.20
2023-03-29T03:48:49.362Z,37.90
2023-03-29T03:51:22.918Z,37.70
2023-03-29T03:53:52.309Z,37.50
2023-03-29T03:56:35.346Z,37.50
2023-03-29T03:59:15.553Z,37.40
2023-03-29T04:02:16.572Z,37.50
2023-03-29T04:04:47.677Z,37.50
2023-03-29T04:07:19.650Z,37.70
2023-03-29T04:10:08.953Z,37.70
2023-03-29T04:12:49.303Z,38.10
2023-03-29T04:15:20.210Z,38.10
2023-03-29T04:17:57.462Z,38.00
2023-03-29T04:20:31.784Z,37.80
2023-03-29T04:23:01.589Z,37.40
2023-03-29T04:25:30.773Z,37.20
2023-03-29T04:28:36.215Z,37.00
2023-03-29T04:31:12.147Z,36.50
2023-03-29T04:33:51.558Z,36.80
2023-03-29T04:36:21.393Z,36.80
2023-03-29T04:38:52.227Z,37.10
2023-03-29T04:41:21.300Z,37.30
2023-03-29T04:44:00.504Z,37.50
2023-03-29T04:46:33.297Z,37.90
2023-03-29T04:49:11.356Z,38.00
2023-03-29T04:51:43.968Z,38.60
2023-03-29T04:54:15.676Z,38.30
2023-03-29T04:57:07.047Z,38.00
2023-03-29T04:59:41.595Z,37.40
2023-03-29T05:02:33.125Z,36.90
2023-03-29T05:05:01.443Z,36.70
2023-03-29T05:07:31.580Z,36.20
2023-03-29T05:09:59.833Z,35.90
2023-03-29T05:12:28.509Z,35.70
2023-03-29T05:14:58.835Z,35.40
2023-03-29T05:17:28.593Z,35.90
2023-03-29T05:20:09.128Z,35.30
2023-03-29T05:22:40.192Z,35.00
2023-03-29T05:25:13.291Z,35.50
2023-03-29T05:27:45.876Z,36.40
2023-03-29T05:30:15.766Z,37.10
2023-03-29T05:33:13.089Z,37.10
2023-03-29T05:35:41.397Z,38.10
2023-03-29T05:38:11.622Z,38.80
2023-03-29T05:40:41.437Z,39.00
2023-03-29T05:43:28.534Z,40.10
2023-03-29T05:45:57.630Z,40.50
2023-03-29T05:48:27.414Z,40.50
2023-03-29T05:50:57.830Z,41.40
2023-03-29T05:53:28.436Z,41.80
2023-03-29T05:55:57.282Z,42.40
2023-03-29T05:58:28.469Z,43.10
2023-03-29T06:00:57.335Z,43.80
2023-03-29T06:03:48.130Z,44.40
2023-03-29T06:06:18.711Z,44.80
2023-03-29T06:08:48.968Z,45.30
2023-03-29T06:11:24.315Z,46.20
2023-03-29T06:14:04.561Z,47.00
2023-03-29T06:16:33.658Z,47.10
2023-03-29T06:19:02.746Z,47.40
2023-03-29T06:21:32.932Z,47.20
2023-03-29T06:24:04.099Z,47.80
2023-03-29T06:26:38.566Z,47.40
2023-03-29T06:29:06.771Z,47.30
2023-03-29T06:31:36.113Z,47.60
2023-03-29T06:34:05.934Z,47.70
2023-03-29T06:36:54.846Z,47.50
2023-03-29T06:39:26.400Z,47.10
2023-03-29T06:42:20.643Z,47.20
2023-03-29T06:45:24.033Z,47.20
2023-03-29T06:47:54.780Z,47.40
2023-03-29T06:50:24.250Z,48.00
2023-03-29T06:53:04.190Z,48.70
2023-03-29T06:55:34.411Z,49.60
2023-03-29T06:58:16.382Z,49.00
2023-03-29T07:00:45.917Z,48.50
2023-03-29T07:03:24.592Z,48.50
2023-03-29T07:06:02.906Z,48.60
2023-03-29T07:08:32.330Z,48.90
2023-03-29T07:11:05.756Z,48.50
2023-03-29T07:13:55.438Z,48.20
2023-03-29T07:16:24.199Z,47.90
2023-03-29T07:19:01.382Z,48.20
2023-03-29T07:21:53.279Z,48.20
2023-03-29T07:24:24.544Z,47.30
2023-03-29T07:27:03.439Z,47.40
2023-03-29T07:29:33.333Z,47.30
2023-03-29T07:32:01.552Z,47.00
2023-03-29T07:34:44.543Z,46.80
2023-03-29T07:37:25.707Z,47.30
2023-03-29T07:39:54.931Z,46.60
2023-03-29T07:42:47.749Z,45.90
2023-03-29T07:45:26.637Z,44.90
2023-03-29T07:48:10.662Z,44.40
2023-03-29T07:51:09.050Z,45.10
2023-03-29T07:53:45.265Z,45.40
2023-03-29T07:56:31.810Z,45.00
2023-03-29T07:59:21.758Z,44.40
2023-03-29T08:01:59.294Z,42.40
2023-03-29T08:04:32.847Z,41.80
2023-03-29T08:07:24.835Z,41.10
2023-03-29T08:10:13.562Z,41.60
2023-03-29T08:13:09.099Z,40.70
2023-03-29T08:15:51.974Z,38.50
2023-03-29T08:18:37.364Z,38.40
2023-03-29T08:21:07.253Z,37.50
2023-03-29T08:23:36.076Z,36.20
2023-03-29T08:26:15.927Z,36.30
2023-03-29T08:28:44.885Z,36.00
2023-03-29T08:31:15.024Z,34.90
2023-03-29T08:33:46.371Z,37.00
2023-03-29T08:36:34.854Z,36.70
2023-03-29T08:39:11.417Z,35.00
2023-03-29T08:41:53.721Z,35.10
2023-03-29T08:44:37.921Z,34.90
2023-03-29T08:47:21.955Z,34.40
2023-03-29T08:49:56.748Z,34.70
2023-03-29T08:52:37.176Z,35.90
2023-03-29T08:55:25.827Z,35.30
2023-03-29T08:58:25.462Z,36.00
2023-03-29T09:00:56.831Z,37.50
2023-03-29T09:03:31.104Z,36.80
2023-03-29T09:06:07.612Z,37.20
2023-03-29T09:08:46.201Z,35.80
2023-03-29T09:11:31.303Z,35.10
2023-03-29T09:14:15.671Z,35.80
2023-03-29T09:16:51.156Z,35.80
2023-03-29T09:19:32.891Z,35.60
2023-03-29T09:22:14.004Z,36.90
2023-03-29T09:24:54.633Z,36.80
2023-03-29T09:27:28.180Z,36.80
2023-03-29T09:30:17.175Z,36.30
2023-03-29T09:33:01.894Z,36.20
2023-03-29T09:35:48.327Z,36.70
2023-03-29T09:38:19.488Z,37.30
2023-03-29T09:40:51.301Z,36.60
2023-03-29T09:43:30.523Z,36.90
2023-03-29T09:46:04.141Z,37.90
2023-03-29T09:48:37.764Z,36.60
2023-03-29T09:51:09.830Z,34.30
2023-03-29T09:53:40.436Z,35.10
2023-03-29T09:56:19.036Z,33.30
2023-03-29T09:58:53.017Z,31.60
2023-03-29T10:01:21.414Z,33.80
2023-03-29T10:03:53.431Z,34.20
2023-03-29T10:06:26.848Z,33.50
2023-03-29T10:09:01.022Z,35.20
2023-03-29T10:11:38.314Z,34.40
2023-03-29T10:14:13.286Z,33.80
2023-03-29T10:16:45.982Z,35.40
2023-03-29T10:19:27.501Z,35.40
2023-03-29T10:22:00.127Z,35.10
2023-03-29T10:24:29.138Z,34.60
2023-03-29T10:27:01.182Z,33.30
2023-03-29T10:29:37.395Z,34.20
2023-03-29T10:32:16.237Z,32.70
2023-03-29T10:34:46.802Z,34.10
2023-03-29T10:37:19.298Z,33.50
2023-03-29T10:39:48.839Z,34.20
2023-03-29T10:42:20.272Z,34.00
2023-03-29T10:44:54.559Z,34.60
2023-03-29T10:47:23.458Z,34.50
2023-03-29T10:49:56.366Z,34.40
2023-03-29T10:52:27.201Z,33.30
2023-03-29T10:54:59.181Z,32.70
2023-03-29T10:57:37.188Z,32.50
2023-03-29T11:00:11.089Z,32.50
2023-03-29T11:03:14.261Z,31.50
2023-03-29T11:05:48.742Z,31.10
2023-03-29T11:08:36.033Z,31.00
2023-03-29T11:11:16.126Z,31.70
2023-03-29T11:13:51.389Z,28.80
2023-03-29T11:16:28.146Z,31.60
2023-03-29T11:19:13.525Z,32.70
2023-03-29T11:21:49.915Z,31.30
2023-03-29T11:24:47.624Z,32.50
2023-03-29T11:27:27.364Z,33.30
2023-03-29T11:30:08.657Z,31.80
2023-03-29T11:32:47.041Z,31.10
2023-03-29T11:35:38.964Z,30.60
2023-03-29T11:38:13.733Z,29.80
2023-03-29T11:40:54.667Z,30.00
2023-03-29T11:43:28.881Z,31.00
2023-03-29T11:46:00.880Z,31.90
2023-03-29T11:48:36.922Z,32.80
2023-03-29T11:51:13.121Z,32.00
2023-03-29T11:53:51.684Z,30.20
2023-03-29T11:56:29.285Z,29.90
2023-03-29T11:59:04.675Z,30.40
2023-03-29T12:01:36.593Z,31.00
2023-03-29T12:04:08.873Z,31.40
2023-03-29T12:06:43.130Z,30.20
2023-03-29T12:09:23.320Z,30.30
2023-03-29T12:11:58.765Z,30.30
2023-03-29T12:14:31.386Z,31.10
2023-03-29T12:17:03.248Z,30.00
2023-03-29T12:19:33.126Z,29.60
2023-03-29T12:22:02.185Z,29.90
2023-03-29T12:24:34.408Z,29.90
2023-03-29T12:27:20.230Z,29.90
2023-03-29T12:30:05.600Z,29.10
2023-03-29T12:32:45.927Z,28.50
2023-03-29T12:35:42.139Z,30.20
2023-03-29T12:38:31.218Z,29.00
2023-03-29T12:41:20.432Z,29.40
2023-03-29T12:44:16.114Z,28.90
2023-03-29T12:46:58.136Z,28.00
2023-03-29T12:49:31.378Z,28.20
2023-03-29T12:52:01.693Z,28.80
2023-03-29T12:54:33.025Z,28.20
2023-03-29T12:57:03.404Z,28.80
2023-03-29T12:59:41.227Z,27.80
2023-03-29T13:02:36.994Z,28.90
2023-03-29T13:05:26.454Z,27.90
2023-03-29T13:07:55.948Z,27.00
2023-03-29T13:10:42.243Z,26.90
2023-03-29T13:13:16.111Z,27.40
2023-03-29T13:15:46.796Z,27.80
2023-03-29T13:18:33.969Z,27.60
2023-03-29T13:21:10.711Z,27.80
2023-03-29T13:23:48.515Z,28.60
2023-03-29T13:26:39.790Z,27.60
2023-03-29T13:29:30.751Z,27.60
2023-03-29T13:32:07.192Z,27.80
2023-03-29T13:34:42.108Z,28.30
2023-03-29T13:37:23.917Z,27.80
2023-03-29T13:39:53.935Z,26.40
2023-03-29T13:42:25.946Z,26.60
2023-03-29T13:44:54.241Z,28.90
2023-03-29T13:47:48.906Z,26.70
2023-03-29T13:50:36.380Z,28.90
2023-03-29T13:53:11.703Z,29.00
2023-03-29T13:55:48.835Z,28.10
2023-03-29T13:58:28.379Z,28.60
2023-03-29T14:01:02.346Z,28.30
2023-03-29T14:03:44.714Z,28.80
2023-03-29T14:06:16.165Z,28.30
2023-03-29T14:08:45.724Z,29.20
2023-03-29T14:11:23.007Z,29.20
2023-03-29T14:13:54.474Z,29.20
2023-03-29T14:16:24.306Z,29.60
2023-03-29T14:18:54.269Z,30.80
2023-03-29T14:21:25.428Z,30.50
2023-03-29T14:23:58.468Z,30.70
2023-03-29T14:26:31.909Z,31.90
2023-03-29T14:29:01.713Z,32.30
2023-03-29T14:31:33.377Z,32.10
2023-03-29T14:34:05.062Z,32.70
2023-03-29T14:36:34.384Z,32.50
2023-03-29T14:39:05.845Z,33.20
2023-03-29T14:41:37.193Z,32.30
2023-03-29T14:44:07.646Z,32.30
2023-03-29T14:46:37.212Z,31.90
2023-03-29T14:49:07.350Z,32.20
2023-03-29T14:51:36.949Z,33.10
2023-03-29T14:54:06.505Z,33.20
2023-03-29T14:56:35.026Z,32.10
2023-03-29T14:59:05.343Z,32.80
2023-03-29T15:01:33.709Z,33.20
2023-03-29T15:04:06.140Z,31.80
2023-03-29T15:06:39.900Z,32.10
2023-03-29T15:09:14.022Z,31.20
2023-03-29T15:11:42.400Z,31.00
2023-03-29T15:14:17.288Z,30.10
2023-03-29T15:16:48.232Z,29.90
2023-03-29T15:19:19.365Z,30.50
2023-03-29T15:21:50.536Z,31.30
2023-03-29T15:24:24.413Z,31.70
2023-03-29T15:27:04.214Z,31.70
2023-03-29T15:29:38.566Z,32.80
2023-03-29T15:32:07.229Z,33.50
2023-03-29T15:34:35.541Z,31.60
2023-03-29T15:37:05.761Z,30.20
2023-03-29T15:39:34.903Z,30.60
2023-03-29T15:42:03.144Z,29.80
2023-03-29T15:44:36.242Z,30.00
2023-03-29T15:47:04.949Z,29.90
2023-03-29T15:49:33.397Z,29.90
2023-03-29T15:52:01.578Z,30.00
2023-03-29T15:54:33.288Z,30.40
2023-03-29T15:57:05.315Z,30.60
2023-03-29T15:59:33.997Z,30.20
2023-03-29T16:02:02.494Z,30.10
2023-03-29T16:04:30.815Z,29.60
2023-03-29T16:06:59.050Z,29.30
2023-03-29T16:09:27.370Z,28.90
2023-03-29T16:11:57.005Z,27.70
2023-03-29T16:14:27.659Z,27.80
2023-03-29T16:16:58.829Z,28.40
2023-03-29T16:19:28.164Z,28.10
2023-03-29T16:21:56.958Z,28.60
2023-03-29T16:24:27.437Z,28.90
2023-03-29T16:26:58.450Z,27.90
2023-03-29T16:29:27.020Z,28.10
2023-03-29T16:31:55.773Z,28.10
2023-03-29T16:34:24.844Z,27.30
2023-03-29T16:36:53.924Z,28.20
2023-03-29T16:39:22.146Z,28.30
2023-03-29T16:41:50.826Z,28.60
2023-03-29T16:44:27.538Z,29.10
2023-03-29T16:46:57.790Z,29.40
2023-03-29T16:49:26.048Z,29.70
2023-03-29T16:51:54.263Z,32.30
2023-03-29T16:54:25.568Z,31.30
2023-03-29T16:56:53.879Z,29.90
2023-03-29T16:59:23.489Z,29.70
2023-03-29T17:01:51.731Z,29.50
2023-03-29T17:04:22.555Z,29.50
2023-03-29T17:06:51.592Z,30.50
2023-03-29T17:09:20.061Z,30.20
2023-03-29T17:11:48.283Z,30.70
2023-03-29T17:14:17.013Z,31.10
2023-03-29T17:16:46.600Z,31.30
2023-03-29T17:19:14.823Z,32.10
2023-03-29T17:21:43.213Z,31.50
2023-03-29T17:24:11.391Z,32.10
2023-03-29T17:26:39.967Z,32.50
2023-03-29T17:29:08.205Z,33.10
2023-03-29T17:31:37.354Z,31.90
2023-03-29T17:34:07.741Z,33.10
2023-03-29T17:36:37.428Z,34.30
2023-03-29T17:39:06.194Z,33.80
2023-03-29T17:41:34.370Z,33.30
2023-03-29T17:44:04.469Z,33.60
2023-03-29T17:46:32.761Z,33.50
2023-03-29T17:49:03.955Z,33.40
2023-03-29T17:51:33.632Z,33.90
2023-03-29T17:54:01.820Z,34.40
2023-03-29T17:56:30.035Z,33.90
2023-03-29T17:58:58.713Z,34.70
2023-03-29T18:01:27.271Z,34.90
2023-03-29T18:03:55.604Z,34.50
2023-03-29T18:06:24.459Z,34.10
2023-03-29T18:08:55.097Z,35.00
2023-03-29T18:11:24.680Z,34.50
2023-03-29T18:13:53.912Z,34.90
2023-03-29T18:16:23.368Z,35.00
2023-03-29T18:18:51.958Z,35.50
2023-03-29T18:21:20.804Z,34.80
2023-03-29T18:23:52.860Z,35.00
2023-03-29T18:26:24.127Z,36.10
2023-03-29T18:28:52.409Z,36.00
2023-03-29T18:31:20.829Z,36.30
2023-03-29T18:33:49.025Z,35.90
2023-03-29T18:36:18.602Z,35.80
2023-03-29T18:38:46.930Z,35.90
2023-03-29T18:41:15.849Z,35.70
2023-03-29T18:43:46.764Z,35.90
2023-03-29T18:46:15.047Z,37.20
2023-03-29T18:48:43.264Z,36.80
2023-03-29T18:51:13.329Z,36.20
2023-03-29T18:53:43.599Z,36.80
2023-03-29T18:56:11.914Z,37.60
2023-03-29T18:58:40.066Z,37.80
2023-03-29T19:01:10.802Z,37.00
2023-03-29T19:03:39.201Z,37.20
2023-03-29T19:06:08.337Z,38.00
2023-03-29T19:08:39.613Z,37.70
2023-03-29T19:11:09.444Z,37.00
2023-03-29T19:13:37.716Z,37.50
2023-03-29T19:16:06.580Z,38.10
2023-03-29T19:18:36.615Z,38.40
2023-03-29T19:21:04.901Z,38.30
2023-03-29T19:23:33.075Z,38.30
2023-03-29T19:26:03.454Z,39.00
2023-03-29T19:28:32.137Z,38.30
2023-03-29T19:31:01.890Z,37.00
2023-03-29T19:33:30.422Z,36.60
2023-03-29T19:36:00.078Z,37.50
2023-03-29T19:38:28.305Z,36.90
2023-03-29T19:40:57.314Z,36.90
2023-03-29T19:43:25.519Z,35.70
2023-03-29T19:45:53.679Z,35.10
2023-03-29T19:48:23.829Z,37.00
2023-03-29T19:50:52.951Z,36.60
2023-03-29T19:53:23.161Z,37.20
2023-03-29T19:55:52.367Z,37.70
2023-03-29T19:58:20.664Z,37.90
2023-03-29T20:00:50.655Z,38.30
2023-03-29T20:03:18.899Z,38.10
2023-03-29T20:05:47.809Z,38.70
2023-03-29T20:08:16.119Z,39.20
2023-03-29T20:10:45.721Z,39.40
2023-03-29T20:13:15.780Z,39.70
2023-03-29T20:15:50.138Z,39.90
2023-03-29T20:18:21.653Z,40.00
2023-03-29T20:20:50.488Z,39.20
2023-03-29T20:23:18.909Z,38.40
2023-03-29T20:25:48.418Z,39.20
2023-03-29T20:28:17.253Z,39.10
2023-03-29T20:30:45.638Z,38.00
2023-03-29T20:33:13.864Z,37.70
2023-03-29T20:35:42.415Z,38.60
2023-03-29T20:38:11.573Z,38.80
2023-03-29T20:40:40.797Z,38.50
2023-03-29T20:43:13.280Z,38.60
2023-03-29T20:45:52.104Z,39.60
2023-03-29T20:48:23.080Z,39.30
2023-03-29T20:50:52.287Z,37.80
2023-03-29T20:53:21.349Z,38.30
2023-03-29T20:55:49.625Z,39.50
2023-03-29T20:58:19.177Z,38.80
2023-03-29T21:00:48.326Z,38.40
2023-03-29T21:03:16.884Z,38.20
2023-03-29T21:05:45.166Z,38.40
2023-03-29T21:08:17.491Z,38.70
2023-03-29T21:10:47.752Z,39.40
2023-03-29T21:13:15.946Z,39.20
2023-03-29T21:15:47.530Z,39.20
2023-03-29T21:18:16.336Z,39.40
2023-03-29T21:20:45.520Z,39.40
2023-03-29T21:23:14.787Z,38.80
2023-03-29T21:25:43.890Z,38.30
2023-03-29T21:28:13.247Z,38.40
2023-03-29T21:30:41.703Z,38.30
2023-03-29T21:33:11.350Z,38.30
2023-03-29T21:35:39.615Z,38.50
2023-03-29T21:38:07.917Z,39.30
2023-03-29T21:40:38.964Z,39.00
2023-03-29T21:43:07.393Z,39.40
2023-03-29T21:45:35.746Z,39.20
2023-03-29T21:48:03.958Z,40.30
2023-03-29T21:50:34.429Z,39.50
2023-03-29T21:53:05.735Z,40.30
2023-03-29T21:55:36.115Z,40.10
2023-03-29T21:58:04.722Z,39.30
2023-03-29T22:00:33.255Z,39.10
2023-03-29T22:03:02.606Z,38.70
2023-03-29T22:05:31.160Z,38.50
2023-03-29T22:08:01.985Z,39.80
2023-03-29T22:10:32.928Z,39.70
2023-03-29T22:13:01.702Z,40.10
2023-03-29T22:15:29.977Z,39.00
2023-03-29T22:17:59.794Z,39.40
2023-03-29T22:20:28.283Z,39.80
2023-03-29T22:22:56.667Z,39.00
2023-03-29T22:25:26.287Z,38.90
2023-03-29T22:27:54.467Z,39.50
2023-03-29T22:30:22.776Z,39.20
2023-03-29T22:32:51.156Z,39.50
2023-03-29T22:35:19.488Z,40.00
2023-03-29T22:37:47.704Z,39.50
2023-03-29T22:40:16.404Z,39.90
2023-03-29T22:42:46.037Z,40.00
2023-03-29T22:45:14.339Z,40.20
2023-03-29T22:47:42.580Z,40.00
2023-03-29T22:50:11.987Z,40.50
2023-03-29T22:52:40.369Z,40.60
2023-03-29T22:55:09.165Z,40.20
2023-03-29T22:57:37.340Z,39.80
2023-03-29T23:00:08.886Z,38.90
2023-03-29T23:02:37.804Z,38.00
2023-03-29T23:05:06.868Z,37.70
2023-03-29T23:07:36.322Z,37.30
2023-03-29T23:10:06.431Z,38.60
2023-03-29T23:12:36.188Z,39.10
2023-03-29T23:15:08.018Z,39.80
2023-03-29T23:17:37.108Z,40.80
2023-03-29T23:20:06.989Z,40.80
2023-03-29T23:22:36.349Z,41.90
2023-03-29T23:25:04.740Z,41.80
2023-03-29T23:27:33.124Z,40.90
2023-03-29T23:30:01.627Z,40.40
2023-03-29T23:32:31.266Z,39.70
2023-03-29T23:35:00.252Z,39.00
2023-03-29T23:37:28.441Z,39.00
2023-03-29T23:39:56.657Z,38.50
2023-03-29T23:42:24.881Z,38.20
2023-03-29T23:44:53.080Z,38.20
2023-03-29T23:47:21.423Z,38.30
2023-03-29T23:49:53.216Z,38.90
2023-03-29T23:52:21.533Z,39.40
2023-03-29T23:54:51.213Z,38.80
2023-03-29T23:57:19.550Z,38.90
2023-03-29T23:59:52.476Z,38.30
